New Paris, Pennsylvania
Current Conditions -  °F | °C
As of 10:54 PM on Wednesday 28 Jan 2015 (Local Time) from KJST Reporting Station
Clear Clear  
Wind Chill:   Ceiling: Unl
Heat Index: 11°   Visibility: 10mi
Dew Point:   Wind: 6mph
Humidity: 77%   Direction: 180°S
Pressure: 30.2"   Gusts: NA
Location:  40.11°N, 78.64°W
Report Text: KJST 290354Z AUTO 18005KT 10SM CLR M12/M15 A3020 RMK AO2 SLP274 T11171150
Loading
Personal Weather Stations






























Interactive Weather Map New forecast layout! Learn more

10-Day Weather Forecast

Advertisements
Track Severe Weather on mobile